Time;durP1;ratioP1;P1;durP2;ratioP2;P2;SDS_P1;SDS_P2;PMS_P1;PMS_P2;Temp;Humidity;BMP_temperature;BMP_pressure;BME280_temperature;BME280_humidity;BME280_pressure;Samples;Min_cycle;Max_cycle;Signal;HPM_P1;HPM_P2
2022/09/07 00:01:17;;;;;;;0.40;0.20;;;;;;;19.94;100.00;95768.56;5132233;28;20484;-57
2022/09/07 00:03:46;;;;;;;0.50;0.40;;;;;;;19.83;100.00;95767.31;5132299;28;20422;-57
2022/09/07 00:06:14;;;;;;;1.53;0.37;;;;;;;19.91;100.00;95761.13;5132279;28;20430;-58
2022/09/07 00:08:43;;;;;;;0.50;0.40;;;;;;;19.27;100.00;95709.03;5132240;28;20895;-57
2022/09/07 00:11:14;;;;;;;0.73;0.50;;;;;;;19.07;100.00;95768.75;5131188;28;20434;-58
2022/09/07 00:13:46;;;;;;;1.00;0.40;;;;;;;18.71;100.00;95760.06;5132650;28;20419;-58
2022/09/07 00:16:18;;;;;;;0.70;0.30;;;;;;;18.88;100.00;95766.28;5132064;28;20423;-58
2022/09/07 00:18:47;;;;;;;0.40;0.30;;;;;;;19.19;100.00;95771.63;5132114;28;20886;-59
2022/09/07 00:21:17;;;;;;;0.40;0.30;;;;;;;19.37;100.00;95772.47;5132175;28;20514;-59
2022/09/07 00:23:45;;;;;;;0.40;0.30;;;;;;;19.48;100.00;95765.72;5132043;27;20450;-58
2022/09/07 00:26:16;;;;;;;0.40;0.20;;;;;;;19.52;100.00;95759.38;5132025;28;20476;-57
2022/09/07 00:28:45;;;;;;;0.40;0.20;;;;;;;19.69;100.00;95774.72;5132029;28;20593;-58
2022/09/07 00:31:18;;;;;;;0.47;0.30;;;;;;;19.16;100.00;95772.22;5132072;28;20446;-57
2022/09/07 00:33:48;;;;;;;0.60;0.40;;;;;;;19.23;100.00;95769.88;5132182;27;20489;-57
2022/09/07 00:36:17;;;;;;;0.50;0.40;;;;;;;19.53;100.00;95770.94;5131974;28;21038;-58
2022/09/07 00:38:46;;;;;;;0.40;0.30;;;;;;;19.31;100.00;95771.00;5132222;28;20493;-57
2022/09/07 00:41:15;;;;;;;0.50;0.40;;;;;;;19.58;100.00;95776.16;5132287;28;20844;-57
2022/09/07 00:43:45;;;;;;;0.40;0.30;;;;;;;18.70;100.00;95748.53;5132565;27;20498;-57
2022/09/07 00:46:17;;;;;;;0.90;0.30;;;;;;;18.60;100.00;95788.28;5135869;27;20502;-57
2022/09/07 00:48:50;;;;;;;0.60;0.40;;;;;;;19.02;100.00;95785.00;5136178;27;20449;-57
2022/09/07 00:51:24;;;;;;;1.00;0.77;;;;;;;19.01;100.00;95751.97;5135743;27;20461;-57
2022/09/07 00:53:58;;;;;;;0.50;0.30;;;;;;;19.41;100.00;95768.03;5136107;27;20504;-57
2022/09/07 00:56:31;;;;;;;0.50;0.30;;;;;;;19.50;100.00;95771.56;5135637;27;20422;-57
2022/09/07 00:59:01;;;;;;;0.40;0.30;;;;;;;19.48;100.00;95769.16;5135715;27;20457;-57
2022/09/07 01:01:32;;;;;;;0.40;0.30;;;;;;;19.56;100.00;95765.69;5135340;27;20509;-57
2022/09/07 01:04:02;;;;;;;0.40;0.30;;;;;;;19.52;100.00;95772.81;5135894;27;20494;-57
2022/09/07 01:06:33;;;;;;;0.40;0.20;;;;;;;19.55;100.00;95769.53;5135463;27;20454;-57
2022/09/07 01:09:04;;;;;;;0.47;0.30;;;;;;;19.33;100.00;95776.84;5135423;27;20440;-57
2022/09/07 01:11:34;;;;;;;0.60;0.30;;;;;;;19.44;100.00;95767.44;5135406;27;20480;-57
2022/09/07 01:14:04;;;;;;;0.50;0.30;;;;;;;19.36;100.00;95749.34;5135402;27;20509;-57
2022/09/07 01:16:49;;;;;;;0.50;0.30;;;;;;;19.35;100.00;95755.84;5135240;27;20847;-57
2022/09/07 01:20:02;;;;;;;0.50;0.50;;;;;;;19.49;100.00;95761.91;5135300;27;20423;-57
2022/09/07 01:22:54;;;;;;;0.50;0.40;;;;;;;19.41;100.00;95762.66;5051830;28;20426;-57
2022/09/07 01:25:40;;;;;;;0.40;0.30;;;;;;;19.49;100.00;95769.97;5135733;27;20423;-58
2022/09/07 01:28:15;;;;;;;0.50;0.30;;;;;;;19.12;100.00;95743.63;5135438;27;20454;-57
2022/09/07 01:30:54;;;;;;;0.50;0.40;;;;;;;19.28;100.00;95760.88;5135058;27;20461;-58
2022/09/07 01:33:47;;;;;;;0.50;0.43;;;;;;;19.29;100.00;95762.47;5134811;27;20426;-58
2022/09/07 01:36:26;;;;;;;0.40;0.30;;;;;;;19.20;100.00;95772.41;5135240;27;20415;-58
2022/09/07 01:38:56;;;;;;;0.60;0.53;;;;;;;18.61;100.00;95763.81;5134914;27;20966;-58
2022/09/07 01:41:29;;;;;;;1.00;0.93;;;;;;;18.34;100.00;95755.91;5134925;27;20415;-58
2022/09/07 01:44:05;;;;;;;0.40;0.20;;;;;;;18.51;100.00;95772.13;5134843;27;20450;-58
2022/09/07 01:46:37;;;;;;;0.50;0.30;;;;;;;18.68;100.00;95761.47;5134715;27;20475;-58
2022/09/07 01:49:13;;;;;;;0.50;0.30;;;;;;;18.85;100.00;95766.91;5135028;27;20487;-58
2022/09/07 01:51:46;;;;;;;0.50;0.30;;;;;;;18.82;100.00;95775.59;5135052;27;20513;-58
2022/09/07 01:54:21;;;;;;;0.40;0.30;;;;;;;18.70;100.00;95737.00;5134639;27;20418;-58
2022/09/07 01:56:53;;;;;;;0.70;0.30;;;;;;;18.04;100.00;95690.38;5134521;27;20796;-58
2022/09/07 01:59:29;;;;;;;0.60;0.30;;;;;;;18.85;100.00;95764.22;5134763;27;20457;-58
2022/09/07 02:02:03;;;;;;;0.50;0.40;;;;;;;18.80;100.00;95748.25;5134422;27;20507;-58
2022/09/07 02:04:37;;;;;;;0.50;0.30;;;;;;;18.94;100.00;95748.16;5134725;27;20434;-58
2022/09/07 02:07:12;;;;;;;0.47;0.30;;;;;;;18.60;100.00;95745.31;5134368;27;20429;-58
2022/09/07 02:09:48;;;;;;;0.47;0.30;;;;;;;18.69;100.00;95738.91;5134646;27;20422;-58
2022/09/07 02:12:24;;;;;;;0.50;0.30;;;;;;;18.33;100.00;95738.22;5134240;27;21016;-58
2022/09/07 02:15:00;;;;;;;0.53;0.30;;;;;;;18.58;100.00;95739.47;5134584;27;20501;-58
2022/09/07 02:17:34;;;;;;;0.40;0.20;;;;;;;18.48;100.00;95729.78;5134514;27;20457;-57
2022/09/07 02:20:08;;;;;;;0.60;0.60;;;;;;;17.58;100.00;95555.91;5134419;27;20422;-58
2022/09/07 02:22:41;;;;;;;5.97;0.40;;;;;;;18.75;100.00;95736.84;5134194;27;20513;-58
2022/09/07 02:25:14;;;;;;;0.50;0.30;;;;;;;18.35;100.00;95742.16;5134268;27;20872;-58
2022/09/07 02:27:47;;;;;;;0.40;0.30;;;;;;;18.40;100.00;95743.94;5133948;27;20962;-58
2022/09/07 02:30:17;;;;;;;0.50;0.40;;;;;;;18.69;100.00;95746.97;5133857;27;20433;-58
2022/09/07 02:32:46;;;;;;;0.40;0.30;;;;;;;18.42;100.00;95740.94;5133748;27;20869;-58
2022/09/07 02:35:15;;;;;;;0.60;0.50;;;;;;;18.70;100.00;95743.16;5133548;27;21025;-58
2022/09/07 02:37:45;;;;;;;0.40;0.30;;;;;;;18.75;100.00;95748.38;5133927;27;20425;-58
2022/09/07 02:40:13;;;;;;;0.50;0.30;;;;;;;18.69;100.00;95755.00;5133649;27;20479;-58
2022/09/07 02:42:46;;;;;;;0.50;0.30;;;;;;;18.77;100.00;95753.47;5133607;27;20513;-58
2022/09/07 02:45:18;;;;;;;1.13;0.63;;;;;;;18.75;100.00;95755.66;5133399;27;20464;-58
2022/09/07 02:48:11;;;;;;;0.40;0.30;;;;;;;18.47;100.00;95751.59;5133549;27;20795;-58
2022/09/07 02:50:49;;;;;;;0.40;0.30;;;;;;;18.15;100.00;95757.97;5133140;27;20995;-58
2022/09/07 02:53:34;;;;;;;0.70;0.70;;;;;;;18.45;100.00;95751.84;5133133;27;20418;-57
2022/09/07 02:56:12;;;;;;;0.63;0.63;;;;;;;18.31;100.00;95756.50;5133384;27;20543;-57
2022/09/07 02:58:48;;;;;;;0.60;0.40;;;;;;;17.77;100.00;95754.88;5132979;27;20557;-57
2022/09/07 03:01:29;;;;;;;0.50;0.33;;;;;;;18.27;100.00;95756.31;5133159;27;20521;-58
2022/09/07 03:04:07;;;;;;;0.40;0.30;;;;;;;18.38;100.00;95754.19;5132886;27;20428;-58
2022/09/07 03:06:40;;;;;;;0.40;0.20;;;;;;;18.41;100.00;95750.91;5132394;27;20426;-58
2022/09/07 03:09:15;;;;;;;0.50;0.40;;;;;;;17.78;100.00;95756.47;5133020;27;20473;-58
2022/09/07 03:11:44;;;;;;;0.40;0.30;;;;;;;17.36;100.00;95756.81;5133147;27;20505;-58
2022/09/07 03:14:15;;;;;;;0.90;0.30;;;;;;;17.03;100.00;95764.22;5133214;27;20513;-58
2022/09/07 03:16:46;;;;;;;0.50;0.40;;;;;;;17.37;100.00;95761.09;5132833;27;20447;-58
2022/09/07 03:19:14;;;;;;;0.40;0.20;;;;;;;17.78;100.00;95759.16;5132829;27;20510;-58
2022/09/07 03:21:43;;;;;;;0.40;0.30;;;;;;;17.98;100.00;95763.25;5132757;27;20997;-58
2022/09/07 03:24:12;;;;;;;0.40;0.20;;;;;;;18.09;100.00;95762.69;5133031;27;20506;-59
2022/09/07 03:26:43;;;;;;;1.53;0.30;;;;;;;18.32;100.00;95769.63;5132704;27;20951;-58
2022/09/07 03:29:12;;;;;;;0.50;0.40;;;;;;;18.33;100.00;95770.41;5132790;27;20435;-57
2022/09/07 03:31:40;;;;;;;0.50;0.30;;;;;;;18.41;100.00;95772.38;5131581;27;20915;-57
2022/09/07 03:34:12;;;;;;;0.60;0.60;;;;;;;18.25;100.00;95728.22;5132578;27;20492;-57
2022/09/07 03:36:40;;;;;;;0.50;0.30;;;;;;;18.50;100.00;95767.84;5132961;27;20423;-58
2022/09/07 03:39:12;;;;;;;0.40;0.30;;;;;;;18.45;100.00;95777.88;5132513;28;20498;-57
2022/09/07 03:41:40;;;;;;;0.53;0.50;;;;;;;18.50;100.00;95775.91;5132584;28;20465;-57
2022/09/07 03:44:09;;;;;;;0.60;0.30;;;;;;;18.45;100.00;95776.00;5132455;28;20521;-57
2022/09/07 03:46:37;;;;;;;0.50;0.30;;;;;;;18.46;100.00;95764.19;5132451;28;20502;-57
2022/09/07 03:49:06;;;;;;;0.40;0.30;;;;;;;18.26;100.00;95780.78;5132690;28;20492;-57
2022/09/07 03:51:36;;;;;;;0.40;0.30;;;;;;;18.28;100.00;95781.28;5132631;28;20503;-57
2022/09/07 03:54:04;;;;;;;0.50;0.30;;;;;;;18.26;100.00;95783.47;5132392;28;20922;-57
2022/09/07 03:56:33;;;;;;;0.50;0.30;;;;;;;18.25;100.00;95782.69;5132316;28;20418;-57
2022/09/07 03:59:01;;;;;;;0.40;0.23;;;;;;;18.06;100.00;95795.50;5132317;28;20505;-57
2022/09/07 04:01:31;;;;;;;0.50;0.40;;;;;;;18.14;100.00;95785.94;5132684;28;20506;-57
2022/09/07 04:04:01;;;;;;;0.60;0.50;;;;;;;17.77;100.00;95792.41;5132505;27;20431;-58
2022/09/07 04:06:30;;;;;;;0.50;0.33;;;;;;;17.36;100.00;95791.66;5132618;28;20461;-58
2022/09/07 04:09:04;;;;;;;0.57;0.40;;;;;;;17.49;100.00;95791.66;5132588;28;20509;-58
2022/09/07 04:11:33;;;;;;;0.50;0.40;;;;;;;17.84;100.00;95797.34;5132293;27;21043;-58
2022/09/07 04:14:02;;;;;;;0.50;0.30;;;;;;;18.03;100.00;95798.78;5132517;28;20509;-59
2022/09/07 04:16:31;;;;;;;0.50;0.40;;;;;;;17.99;100.00;95810.41;5132439;28;20480;-58
2022/09/07 04:18:59;;;;;;;0.40;0.30;;;;;;;17.67;100.00;95780.03;5133127;27;20462;-59
2022/09/07 04:21:31;;;;;;;0.50;0.30;;;;;;;17.50;100.00;95806.66;5136040;27;20422;-58
2022/09/07 04:24:00;;;;;;;0.60;0.40;;;;;;;17.03;100.00;95780.28;5136528;27;20984;-58
2022/09/07 04:26:32;;;;;;;0.70;0.70;;;;;;;16.75;100.00;95810.81;5136072;27;20444;-58
2022/09/07 04:29:01;;;;;;;1.33;0.73;;;;;;;16.84;100.00;95814.41;5136032;27;20456;-58
2022/09/07 04:31:30;;;;;;;0.80;0.70;;;;;;;17.20;100.00;95811.84;5135947;27;20902;-58
2022/09/07 04:33:58;;;;;;;0.70;0.70;;;;;;;17.75;100.00;95814.16;5135667;27;20494;-58
2022/09/07 04:36:27;;;;;;;0.60;0.50;;;;;;;17.86;100.00;95817.41;5135994;27;20888;-59
2022/09/07 04:38:58;;;;;;;0.57;0.40;;;;;;;17.50;100.00;95822.72;5135950;27;20881;-59
2022/09/07 04:41:28;;;;;;;0.40;0.30;;;;;;;17.25;100.00;95822.44;5136059;27;20445;-59
2022/09/07 04:43:58;;;;;;;10.33;0.77;;;;;;;17.30;100.00;95833.88;5135591;27;20473;-58
2022/09/07 04:46:29;;;;;;;0.50;0.30;;;;;;;17.37;100.00;95791.38;5135884;27;20957;-58
2022/09/07 04:49:00;;;;;;;0.50;0.30;;;;;;;17.39;100.00;95748.19;5135898;27;20423;-59
2022/09/07 04:51:31;;;;;;;0.40;0.30;;;;;;;18.02;100.00;95828.56;5135900;27;20427;-59
2022/09/07 04:54:01;;;;;;;0.53;0.30;;;;;;;18.06;100.00;95840.31;5135823;27;20892;-59
2022/09/07 04:56:30;;;;;;;0.40;0.30;;;;;;;18.12;100.00;95837.19;5135879;27;20454;-59
2022/09/07 04:59:01;;;;;;;0.50;0.40;;;;;;;17.71;100.00;95834.63;5135333;27;20465;-59
2022/09/07 05:01:30;;;;;;;0.90;0.73;;;;;;;17.72;100.00;95836.22;5135709;27;20454;-58
2022/09/07 05:04:00;;;;;;;0.50;0.40;;;;;;;18.28;100.00;95835.75;5135227;27;20423;-60
2022/09/07 05:06:29;;;;;;;0.40;0.30;;;;;;;18.47;100.00;95830.19;5134866;27;20469;-61
2022/09/07 05:08:59;;;;;;;1.90;0.30;;;;;;;18.66;100.00;95838.88;5135181;27;20425;-62
2022/09/07 05:11:28;;;;;;;1.07;0.40;;;;;;;18.86;100.00;95838.34;5135332;27;20456;-61
2022/09/07 05:13:57;;;;;;;0.40;0.30;;;;;;;18.98;100.00;95851.97;5134994;27;20436;-61
2022/09/07 05:16:28;;;;;;;0.63;0.57;;;;;;;19.08;100.00;95836.69;5135493;27;21010;-61
2022/09/07 05:19:00;;;;;;;0.50;0.40;;;;;;;19.24;100.00;95841.34;5135090;27;20881;-61
2022/09/07 05:21:31;;;;;;;0.50;0.40;;;;;;;18.53;100.00;95710.88;5135252;27;20429;-61
2022/09/07 05:24:00;;;;;;;0.50;0.40;;;;;;;19.47;100.00;95831.34;5134880;27;20466;-62
2022/09/07 05:26:30;;;;;;;0.60;0.60;;;;;;;19.60;100.00;95833.91;5134911;27;20475;-61
2022/09/07 05:29:02;;;;;;;0.50;0.30;;;;;;;19.62;100.00;95810.16;5134856;27;20509;-61
2022/09/07 05:31:53;;;;;;;0.40;0.30;;;;;;;19.52;100.00;95831.19;5134380;27;20517;-61
2022/09/07 05:34:22;;;;;;;0.53;0.43;;;;;;;19.01;100.00;95823.72;5134538;27;21027;-61
2022/09/07 05:36:59;;;;;;;0.50;0.40;;;;;;;19.44;100.00;95819.31;5134920;27;20752;-61
2022/09/07 05:39:28;;;;;;;0.50;0.40;;;;;;;19.86;100.00;95817.00;5134504;27;20494;-60
2022/09/07 05:41:56;;;;;;;0.50;0.30;;;;;;;18.88;100.00;95642.75;5134427;27;20823;-60
2022/09/07 05:44:25;;;;;;;0.40;0.30;;;;;;;19.48;100.00;95763.03;5134844;27;20509;-60
2022/09/07 05:47:10;;;;;;;0.50;0.37;;;;;;;19.63;100.00;95809.06;5134491;27;20458;-60
2022/09/07 05:49:39;;;;;;;0.50;0.30;;;;;;;19.94;100.00;95822.38;5134385;27;20414;-60
2022/09/07 05:52:07;;;;;;;0.47;0.30;;;;;;;20.24;100.00;95805.31;5134710;27;20458;-59
2022/09/07 05:54:36;;;;;;;0.43;0.30;;;;;;;20.08;100.00;95811.47;5134645;27;20450;-59
2022/09/07 05:57:06;;;;;;;0.80;0.77;;;;;;;19.72;100.00;95821.72;5134393;27;20485;-58
2022/09/07 05:59:35;;;;;;;0.70;0.50;;;;;;;19.84;100.00;95828.06;5134721;27;20492;-58
2022/09/07 06:02:03;;;;;;;0.97;0.50;;;;;;;20.17;100.00;95821.13;5134523;27;20426;-57
2022/09/07 06:04:33;;;;;;;1.93;0.70;;;;;;;20.42;100.00;95819.53;5134234;27;20459;-60
2022/09/07 06:07:02;;;;;;;0.50;0.43;;;;;;;20.76;100.00;95821.38;5134180;27;20911;-61
2022/09/07 06:09:50;;;;;;;0.50;0.30;;;;;;;21.67;100.00;95810.06;5133806;27;20437;-59
2022/09/07 06:12:38;;;;;;;0.60;0.40;;;;;;;21.09;100.00;95816.25;5133802;27;20446;-60
2022/09/07 06:15:08;;;;;;;0.60;0.60;;;;;;;21.00;100.00;95810.84;5134233;27;20509;-61
2022/09/07 06:17:36;;;;;;;0.90;0.40;;;;;;;21.27;100.00;95807.75;5133914;27;20422;-61
2022/09/07 06:20:08;;;;;;;0.40;0.30;;;;;;;22.04;89.33;95790.28;5133688;27;20527;-61
2022/09/07 06:22:37;;;;;;;0.50;0.43;;;;;;;22.32;86.24;95818.31;5133762;27;20415;-60
2022/09/07 06:25:06;;;;;;;6.33;1.13;;;;;;;22.42;86.13;95815.22;5133975;27;20422;-59
2022/09/07 06:27:34;;;;;;;0.90;0.80;;;;;;;22.01;91.13;95813.34;5133410;27;20546;-59
2022/09/07 06:30:03;;;;;;;0.50;0.30;;;;;;;22.55;88.08;95814.16;5133846;27;20431;-58
2022/09/07 06:32:31;;;;;;;6.17;0.80;;;;;;;23.28;78.63;95822.41;5133817;27;20525;-58
2022/09/07 06:35:17;;;;;;;0.57;0.40;;;;;;;23.41;79.29;95817.84;5133336;27;20473;-57
2022/09/07 06:37:45;;;;;;;0.40;0.40;;;;;;;23.82;75.22;95818.38;5133472;27;21007;-58
2022/09/07 06:40:14;;;;;;;0.50;0.50;;;;;;;23.71;79.79;95814.53;5133298;27;20509;-57
2022/09/07 06:42:42;;;;;;;0.50;0.50;;;;;;;23.66;81.72;95820.19;5132902;27;20426;-59
2022/09/07 06:45:11;;;;;;;0.50;0.40;;;;;;;24.34;76.07;95807.53;5133884;27;20451;-59
2022/09/07 06:47:40;;;;;;;0.57;0.40;;;;;;;24.83;72.81;95813.56;5133553;27;20444;-60
2022/09/07 06:50:11;;;;;;;3.70;0.80;;;;;;;23.96;70.65;95802.53;5133135;27;20452;-60
2022/09/07 06:52:41;;;;;;;0.50;0.40;;;;;;;24.29;73.91;95818.63;5133365;27;20914;-60
2022/09/07 06:55:30;;;;;;;0.80;0.80;;;;;;;25.14;68.80;95813.59;5132943;27;20441;-56
2022/09/07 06:57:58;;;;;;;0.50;0.40;;;;;;;25.43;65.79;95808.84;5133091;27;20975;-61
2022/09/07 07:00:26;;;;;;;0.50;0.50;;;;;;;25.07;64.78;95810.69;5133502;27;20546;-63
2022/09/07 07:02:55;;;;;;;0.40;0.30;;;;;;;25.33;64.57;95810.16;5133064;27;20499;-64
2022/09/07 07:05:23;;;;;;;1.47;0.70;;;;;;;25.41;62.36;95798.34;5133339;27;20418;-63
2022/09/07 07:07:55;;;;;;;0.50;0.30;;;;;;;25.88;60.88;95814.59;5133215;27;20513;-62
2022/09/07 07:10:23;;;;;;;0.70;0.70;;;;;;;26.22;58.90;95813.81;5132227;27;20927;-61
2022/09/07 07:12:55;;;;;;;0.50;0.50;;;;;;;26.91;55.54;95804.69;5133087;27;20946;-61
2022/09/07 07:15:27;;;;;;;0.60;0.60;;;;;;;26.75;53.36;95816.78;5132981;27;20418;-61
2022/09/07 07:17:56;;;;;;;9.53;2.10;;;;;;;26.94;53.93;95774.03;5133186;27;20423;-61
2022/09/07 07:20:36;;;;;;;0.50;0.43;;;;;;;25.99;58.38;95814.81;5132681;27;20476;-60
2022/09/07 07:23:07;;;;;;;0.83;0.83;;;;;;;26.19;56.52;95800.13;5132962;27;20808;-60
2022/09/07 07:25:36;;;;;;;0.70;0.70;;;;;;;26.91;52.75;95798.47;5132612;27;20514;-59
2022/09/07 07:28:05;;;;;;;0.83;0.83;;;;;;;26.76;51.19;95808.31;5132582;27;20454;-53
2022/09/07 07:30:56;;;;;;;2.97;0.70;;;;;;;26.61;51.11;95789.31;5132437;27;20465;-53
2022/09/07 07:33:24;;;;;;;0.70;0.70;;;;;;;26.17;50.76;95802.44;5132470;27;20898;-53
2022/09/07 07:35:53;;;;;;;0.70;0.70;;;;;;;26.57;51.60;95810.22;5132735;27;20935;-53
2022/09/07 07:38:23;;;;;;;1.77;1.67;;;;;;;27.38;51.78;95808.97;5132923;27;20419;-53
2022/09/07 07:41:12;;;;;;;1.17;1.10;;;;;;;26.82;50.78;95811.50;5132403;28;20535;-53
2022/09/07 07:44:00;;;;;;;1.37;0.57;;;;;;;27.05;49.68;95809.59;5132492;28;20442;-54
2022/09/07 07:46:31;;;;;;;3.90;0.60;;;;;;;26.66;49.49;95818.94;5132529;28;20422;-54
2022/09/07 07:48:59;;;;;;;1.83;0.40;;;;;;;28.14;48.33;95802.38;5132443;28;20923;-54
2022/09/07 07:51:28;;;;;;;0.80;0.80;;;;;;;28.68;42.44;95801.91;5132862;27;20423;-53
2022/09/07 07:53:58;;;;;;;0.40;0.30;;;;;;;29.47;43.58;95791.38;5135167;27;20871;-53
2022/09/07 07:56:27;;;;;;;0.57;0.57;;;;;;;28.87;42.85;95801.72;5136953;27;20459;-53
2022/09/07 07:58:55;;;;;;;0.50;0.40;;;;;;;29.38;42.87;95802.63;5137063;27;20757;-53
2022/09/07 08:01:23;;;;;;;1.17;1.17;;;;;;;29.45;42.93;95807.34;5136800;27;21006;-53
2022/09/07 08:03:52;;;;;;;0.40;0.30;;;;;;;29.47;41.02;95803.06;5136575;27;20507;-53
2022/09/07 08:06:21;;;;;;;0.40;0.40;;;;;;;29.54;39.19;95788.69;5136705;27;20430;-53
2022/09/07 08:08:49;;;;;;;0.50;0.50;;;;;;;29.73;38.75;95780.22;5136623;27;20449;-53
2022/09/07 08:11:21;;;;;;;0.53;0.47;;;;;;;29.39;38.80;95789.75;5136668;27;20445;-52
2022/09/07 08:13:50;;;;;;;0.60;0.50;;;;;;;28.92;41.66;95761.22;5136634;27;20431;-53
2022/09/07 08:16:21;;;;;;;0.40;0.40;;;;;;;28.73;42.20;95794.19;5136269;27;20434;-53
2022/09/07 08:18:50;;;;;;;1.03;0.97;;;;;;;29.19;40.52;95788.38;5136316;27;20530;-53
2022/09/07 08:21:18;;;;;;;1.60;0.40;;;;;;;30.08;39.18;95793.38;5136418;27;20869;-53
2022/09/07 08:23:46;;;;;;;0.90;0.57;;;;;;;30.45;37.87;95784.97;5136438;27;20438;-53
2022/09/07 08:26:15;;;;;;;0.40;0.30;;;;;;;30.54;38.85;95786.16;5136256;27;20430;-53
2022/09/07 08:28:45;;;;;;;1.00;0.90;;;;;;;29.71;40.26;95784.50;5136159;27;20421;-53
2022/09/07 08:31:15;;;;;;;0.60;0.60;;;;;;;29.51;40.51;95752.00;5136251;27;20424;-53
2022/09/07 08:33:44;;;;;;;2.00;1.00;;;;;;;29.60;41.35;95773.50;5135758;27;20475;-53
2022/09/07 08:36:15;;;;;;;8.93;0.80;;;;;;;31.04;37.52;95772.63;5135716;27;20442;-52
2022/09/07 08:38:43;;;;;;;0.90;0.90;;;;;;;30.54;37.92;95769.75;5135938;27;20414;-53
2022/09/07 08:41:43;;;;;;;0.50;0.30;;;;;;;30.60;38.07;95775.63;5135905;27;20475;-53
2022/09/07 08:44:20;;;;;;;0.50;0.40;;;;;;;30.56;39.04;95737.31;5107562;27;20451;-53
2022/09/07 08:46:54;;;;;;;1.03;1.03;;;;;;;30.67;37.68;95776.44;5135726;27;20790;-53
2022/09/07 08:49:30;;;;;;;0.80;0.50;;;;;;;32.01;35.70;95754.59;5135657;27;20497;-52
2022/09/07 08:52:02;;;;;;;2.23;0.60;;;;;;;30.72;36.57;95754.16;5135791;27;21086;-52
2022/09/07 08:54:31;;;;;;;0.60;0.60;;;;;;;31.81;34.00;95750.69;5135766;27;20427;-53
2022/09/07 08:57:03;;;;;;;0.73;0.47;;;;;;;32.67;34.72;95742.97;5135711;27;20451;-53
2022/09/07 09:00:02;;;;;;;0.63;0.60;;;;;;;31.92;33.86;95736.97;5135159;27;20499;-53
2022/09/07 09:02:31;;;;;;;0.70;0.70;;;;;;;31.79;35.88;95736.63;5135575;27;20496;-53
2022/09/07 09:05:21;;;;;;;1.63;1.53;;;;;;;31.17;35.92;95744.47;5134778;27;20781;-52
2022/09/07 09:08:03;;;;;;;0.50;0.50;;;;;;;32.19;36.34;95729.06;5134989;27;20465;-53
2022/09/07 09:10:40;;;;;;;0.80;0.50;;;;;;;32.38;36.51;95737.63;5135632;27;20437;-53
2022/09/07 09:13:17;;;;;;;0.43;0.43;;;;;;;31.72;33.96;95733.09;5135556;27;20429;-54
2022/09/07 09:15:58;;;;;;;0.80;0.67;;;;;;;33.46;33.61;95725.53;5135356;27;20426;-52
2022/09/07 09:18:41;;;;;;;0.50;0.50;;;;;;;33.04;33.90;95724.69;5134926;27;20829;-53
2022/09/07 09:21:14;;;;;;;0.80;0.77;;;;;;;32.43;35.04;95723.47;5135313;27;20785;-53
2022/09/07 09:23:44;;;;;;;0.60;0.50;;;;;;;31.50;34.40;95707.69;5134784;27;20433;-53
2022/09/07 09:26:18;;;;;;;0.47;0.33;;;;;;;32.46;35.82;95710.94;5134815;27;20423;-52
2022/09/07 09:28:46;;;;;;;0.33;0.30;;;;;;;32.86;32.35;95709.53;5135192;27;20969;-53
2022/09/07 09:31:24;;;;;;;0.70;0.70;;;;;;;32.41;35.08;95703.13;5135119;27;20423;-52
2022/09/07 09:34:11;;;;;;;0.97;0.97;;;;;;;32.57;33.68;95706.97;5134545;27;20958;-52
2022/09/07 09:36:46;;;;;;;2.90;0.70;;;;;;;32.22;32.52;95698.88;5134620;27;20434;-53
2022/09/07 09:39:30;;;;;;;0.80;0.80;;;;;;;32.70;31.59;95701.78;5134787;27;20417;-52
2022/09/07 09:42:02;;;;;;;0.50;0.40;;;;;;;33.16;32.31;95680.28;5132890;27;20474;-52
2022/09/07 09:44:34;;;;;;;0.70;0.70;;;;;;;32.96;32.55;95698.47;5134579;27;20427;-53
2022/09/07 09:47:05;;;;;;;0.77;0.77;;;;;;;33.50;32.91;95691.34;5134940;27;20428;-52
2022/09/07 09:49:54;;;;;;;1.03;0.60;;;;;;;34.49;29.75;95671.72;5134561;27;20450;-52
2022/09/07 09:52:24;;;;;;;0.40;0.30;;;;;;;34.44;29.75;95677.72;5134853;27;20460;-52
2022/09/07 09:55:00;;;;;;;0.60;0.57;;;;;;;34.21;29.48;95674.88;5134248;27;20419;-52
2022/09/07 09:57:51;;;;;;;0.60;0.60;;;;;;;32.40;29.75;95680.38;5133835;27;20500;-52
2022/09/07 10:00:55;;;;;;;0.50;0.50;;;;;;;32.35;29.75;95653.34;5134036;27;20456;-52
2022/09/07 10:03:44;;;;;;;0.70;0.70;;;;;;;33.62;30.04;95668.88;5133771;27;20483;-52
2022/09/07 10:06:33;;;;;;;1.67;0.90;;;;;;;33.44;29.75;95665.50;5133911;27;20491;-52
2022/09/07 10:09:02;;;;;;;0.40;0.30;;;;;;;33.89;28.58;95663.47;5134188;27;20428;-52
2022/09/07 10:11:43;;;;;;;0.40;0.30;;;;;;;34.79;27.34;95654.41;5134175;27;20411;-52
2022/09/07 10:14:34;;;;;;;0.83;0.70;;;;;;;34.23;29.74;95650.47;5133655;27;20432;-52
2022/09/07 10:17:11;;;;;;;2.10;0.70;;;;;;;34.40;27.91;95649.47;5132782;27;20434;-52
2022/09/07 10:19:43;;;;;;;3.60;0.67;;;;;;;32.76;29.05;95653.50;5134074;27;20187;-53
2022/09/07 10:22:24;;;;;;;0.60;0.60;;;;;;;32.56;29.79;95620.31;5134017;27;20214;-52
2022/09/07 10:24:53;;;;;;;0.40;0.30;;;;;;;34.49;28.07;95646.19;5133725;27;20440;-53
2022/09/07 10:27:30;;;;;;;0.40;0.40;;;;;;;34.35;27.06;95638.13;5133744;27;20246;-53
2022/09/07 10:29:59;;;;;;;0.37;0.30;;;;;;;34.78;28.57;95633.59;5133648;27;20539;-52
2022/09/07 10:32:43;;;;;;;0.93;0.40;;;;;;;35.21;27.39;95616.34;5133520;27;20186;-53
2022/09/07 10:35:21;;;;;;;0.50;0.50;;;;;;;33.88;27.49;95611.63;5133420;27;20257;-53
2022/09/07 10:38:06;;;;;;;0.50;0.40;;;;;;;34.14;27.88;95627.41;5133578;27;20190;-53
2022/09/07 10:40:40;;;;;;;0.40;0.40;;;;;;;34.33;26.37;95619.25;5133453;27;20185;-53
2022/09/07 10:43:20;;;;;;;1.17;0.60;;;;;;;34.38;25.38;95615.28;5133656;27;20741;-53
2022/09/07 10:46:06;;;;;;;0.50;0.50;;;;;;;33.49;27.09;95621.06;5133724;27;20611;-53
2022/09/07 10:48:43;;;;;;;0.47;0.47;;;;;;;33.07;27.36;95616.00;5133436;27;20231;-53
2022/09/07 10:51:17;;;;;;;0.40;0.30;;;;;;;34.12;26.54;95614.06;5133874;27;20265;-53
2022/09/07 10:53:54;;;;;;;0.40;0.30;;;;;;;34.44;26.53;95608.09;5133570;27;20186;-53
2022/09/07 10:56:53;;;;;;;0.40;0.30;;;;;;;35.27;nan;95576.09;5133090;27;20193;-52
2022/09/07 10:59:35;;;;;;;0.57;0.50;;;;;;;35.06;26.83;95604.81;5133294;27;20205;-56
2022/09/07 11:02:33;;;;;;;0.63;0.60;;;;;;;34.44;26.66;95602.59;5133133;27;20301;-57
2022/09/07 11:05:11;;;;;;;0.50;0.40;;;;;;;34.88;25.90;95604.31;5133364;27;20259;-58
2022/09/07 11:07:56;;;;;;;0.40;0.40;;;;;;;35.09;24.83;95593.72;5133325;27;20209;-57
2022/09/07 11:10:32;;;;;;;0.70;0.53;;;;;;;35.27;24.35;95598.16;5132825;27;20687;-57
2022/09/07 11:13:07;;;;;;;0.60;0.40;;;;;;;35.78;25.47;95571.94;5132971;27;20186;-57
2022/09/07 11:15:42;;;;;;;0.43;0.33;;;;;;;34.79;24.63;95593.03;5132817;27;20190;-58
2022/09/07 11:18:17;;;;;;;0.50;0.40;;;;;;;34.90;24.90;95594.41;5132568;27;20184;-57
2022/09/07 11:20:53;;;;;;;0.50;0.40;;;;;;;35.05;24.81;95587.50;5132279;27;20193;-57
2022/09/07 11:23:28;;;;;;;2.90;0.60;;;;;;;33.44;26.48;95591.28;5132331;27;20258;-57
2022/09/07 11:26:04;;;;;;;0.50;0.43;;;;;;;32.76;26.64;95543.69;5132998;27;20212;-57
2022/09/07 11:28:41;;;;;;;1.13;1.13;;;;;;;33.33;26.36;95582.38;5132525;27;20424;-58
2022/09/07 11:31:18;;;;;;;0.40;0.40;;;;;;;33.02;27.21;95583.44;5132570;27;20669;-58
2022/09/07 11:33:58;;;;;;;0.50;0.30;;;;;;;34.04;26.15;95576.03;5132309;27;20621;-57
2022/09/07 11:36:51;;;;;;;0.40;0.40;;;;;;;34.27;25.90;95581.63;5132346;27;20445;-57
2022/09/07 11:39:26;;;;;;;0.80;0.43;;;;;;;34.39;25.84;95575.53;5132397;27;20195;-52
2022/09/07 11:42:01;;;;;;;0.97;0.70;;;;;;;33.38;25.98;95568.19;5132327;27;20228;-51
2022/09/07 11:44:55;;;;;;;0.70;0.70;;;;;;;32.19;27.88;95515.13;5132465;28;20250;-53
2022/09/07 11:47:29;;;;;;;1.17;0.33;;;;;;;33.22;26.69;95565.22;5132574;27;20629;-52
2022/09/07 11:49:58;;;;;;;0.70;0.67;;;;;;;33.23;27.56;95564.81;5132815;27;20427;-52
2022/09/07 11:52:34;;;;;;;0.40;0.30;;;;;;;34.36;27.79;95555.13;5132805;28;20433;-52
2022/09/07 11:55:07;;;;;;;1.17;0.57;;;;;;;33.68;27.16;95521.50;5132862;27;20181;-52
2022/09/07 11:57:53;;;;;;;0.60;0.43;;;;;;;32.86;27.39;95556.53;5132479;27;20431;-53
2022/09/07 12:00:27;;;;;;;0.50;0.50;;;;;;;32.18;28.15;95557.47;5132410;28;20420;-52